Sky Manor (N40)
Pittstown, NJ
Field Elevation: 560
Lat: 40°33.95N  Long: 74°58.76W
CTAF/Unicom Freq: 122.9750
   
    
Weather Advisories
2022-12-01   03:46 Z
Altimeter 29.91" Hg
Wind 270° @ 11 KT
Gusts 23 KT
Visibility 10 SM
Ceiling CLR
Temperature 3° C (37° F)
Dewpoint -6° C (21° F)
Relative Humidity 50%
Density Altitude --
Condensation Altitude 5,300 feet
Wind Chill: -1° C (30° F)
Wind and Runways
Indicated Runway = 25
Headwind = 10 kt
Crosswind = 4 kt
History
 
 
 
More Info
All DigiWx sites map
NOAA Forecast
 
Airport IQ 5010
(4N1) Greenwood Lake, NJ
(PN44) Upper Gwynedd Heliport
 
about DigiWx
 
FAA Disclaimer: The data displayed is for advisory purposes only and is not to be used for flight planning or operations. For official data, please call (not available) to hear the current automated AWOS voice message.
  METAR N40 010346Z AUTO 27011G23KT 10 SM CLR 03/M06 A2991